createdAt,value
2018-11-20T00:01:48.876Z,39.40
2018-11-20T00:07:11.923Z,37.40
2018-11-20T00:10:49.783Z,37.97
2018-11-20T00:13:28.787Z,37.27
2018-11-20T00:16:03.984Z,39.73
2018-11-20T00:18:38.964Z,35.03
2018-11-20T00:21:13.682Z,36.50
2018-11-20T00:23:47.982Z,37.73
2018-11-20T00:26:28.662Z,28.80
2018-11-20T00:29:08.723Z,36.27
2018-11-20T00:39:12.594Z,40.23
2018-11-20T00:41:49.054Z,40.63
2018-11-20T00:44:26.324Z,44.97
2018-11-20T00:47:01.504Z,39.53
2018-11-20T00:49:38.534Z,43.60
2018-11-20T00:53:19.564Z,31.70
2018-11-20T00:56:05.105Z,32.17
2018-11-20T00:58:42.775Z,32.20
2018-11-20T01:01:17.984Z,26.07
2018-11-20T01:03:56.549Z,24.70
2018-11-20T01:06:36.035Z,33.60
2018-11-20T01:09:21.974Z,34.53
2018-11-20T01:12:07.415Z,34.90
2018-11-20T01:14:47.244Z,36.03
2018-11-20T01:17:32.005Z,25.00
2018-11-20T01:20:07.694Z,26.13
2018-11-20T01:22:42.907Z,25.20
2018-11-20T01:25:25.924Z,16.03
2018-11-20T01:28:12.684Z,18.13
2018-11-20T01:30:54.735Z,19.23
2018-11-20T01:34:35.465Z,21.50
2018-11-20T01:37:11.725Z,21.97
2018-11-20T01:40:54.405Z,19.33
2018-11-20T01:43:34.406Z,16.90
2018-11-20T01:47:27.229Z,23.33
2018-11-20T01:50:24.986Z,20.73
2018-11-20T01:53:13.775Z,22.27
2018-11-20T01:56:02.906Z,22.27
2018-11-20T01:58:50.865Z,23.17
2018-11-20T02:01:38.364Z,29.10
2018-11-20T02:04:34.185Z,27.30
2018-11-20T02:07:22.886Z,25.33
2018-11-20T02:10:11.745Z,24.63
2018-11-20T02:13:06.095Z,21.57
2018-11-20T02:16:12.908Z,32.87
2018-11-20T02:19:01.235Z,21.07
2018-11-20T02:21:41.724Z,25.33
2018-11-20T02:24:30.384Z,24.43
2018-11-20T02:27:19.737Z,33.57
2018-11-20T02:30:23.686Z,28.80
2018-11-20T02:33:24.385Z,23.00
2018-11-20T02:36:13.445Z,30.47
2018-11-20T02:39:05.904Z,32.30
2018-11-20T02:41:54.716Z,32.67
2018-11-20T02:44:41.905Z,28.30
2018-11-20T02:47:35.445Z,31.57
2018-11-20T02:50:22.785Z,34.63
2018-11-20T02:53:25.155Z,37.70
2018-11-20T02:56:14.626Z,33.23
2018-11-20T02:59:06.425Z,37.73
2018-11-20T03:01:55.165Z,37.93
2018-11-20T03:04:48.774Z,36.83
2018-11-20T03:07:29.332Z,41.90
2018-11-20T03:10:18.426Z,41.60
2018-11-20T03:13:08.755Z,46.23
2018-11-20T03:16:00.245Z,39.73
2018-11-20T03:18:49.235Z,36.20
2018-11-20T03:21:41.575Z,42.80
2018-11-20T03:24:29.134Z,29.27
2018-11-20T03:27:24.286Z,43.40
2018-11-20T03:30:47.725Z,37.60
2018-11-20T03:33:34.278Z,35.13
2018-11-20T03:36:38.475Z,37.33
2018-11-20T03:39:20.726Z,35.47
2018-11-20T03:42:24.575Z,38.03
2018-11-20T03:45:27.896Z,35.17
2018-11-20T03:48:20.056Z,32.40
2018-11-20T03:51:07.725Z,32.80
2018-11-20T03:53:55.175Z,37.77
2018-11-20T03:56:42.615Z,25.67
2018-11-20T03:59:32.855Z,36.53
2018-11-20T04:02:21.215Z,34.30
2018-11-20T04:05:14.245Z,34.47
2018-11-20T04:13:54.886Z,37.57
2018-11-20T04:16:35.986Z,35.20
2018-11-20T04:19:23.265Z,37.30
2018-11-20T04:22:11.685Z,34.10
2018-11-20T04:25:09.996Z,39.23
2018-11-20T04:27:58.066Z,38.67
2018-11-20T04:31:16.115Z,38.13
2018-11-20T04:34:05.196Z,38.63
2018-11-20T04:37:00.126Z,39.77
2018-11-20T04:39:48.694Z,36.60
2018-11-20T04:42:42.525Z,39.90
2018-11-20T04:45:36.146Z,35.80
2018-11-20T04:48:28.095Z,38.30
2018-11-20T04:51:18.015Z,36.43
2018-11-20T04:54:21.336Z,39.63
2018-11-20T05:00:18.974Z,29.50
2018-11-20T05:03:09.502Z,33.00
2018-11-20T05:06:03.105Z,31.17
2018-11-20T05:08:46.168Z,33.60
2018-11-20T05:11:35.346Z,31.87
2018-11-20T05:14:18.005Z,30.87
2018-11-20T05:17:12.467Z,28.37
2018-11-20T05:20:08.675Z,32.67
2018-11-20T05:23:05.045Z,36.10
2018-11-20T05:26:13.305Z,28.73
2018-11-20T05:29:10.585Z,29.13
2018-11-20T05:32:03.329Z,31.60
2018-11-20T05:35:12.346Z,23.57
2018-11-20T05:38:02.255Z,34.53
2018-11-20T05:41:01.806Z,33.77
2018-11-20T05:43:54.355Z,29.10
2018-11-20T05:46:35.348Z,33.13
2018-11-20T05:49:34.286Z,31.30
2018-11-20T05:52:41.315Z,31.17
2018-11-20T05:55:23.705Z,24.67
2018-11-20T05:58:19.345Z,31.57
2018-11-20T06:01:06.408Z,27.27
2018-11-20T06:04:01.144Z,29.17
2018-11-20T06:06:53.646Z,21.27
2018-11-20T06:10:00.817Z,27.80
2018-11-20T06:13:02.106Z,28.07
2018-11-20T06:15:58.745Z,30.57
2018-11-20T06:18:47.615Z,29.40
2018-11-20T06:21:29.114Z,26.53
2018-11-20T06:24:23.572Z,28.17
2018-11-20T06:27:22.275Z,26.03
2018-11-20T06:30:13.937Z,26.70
2018-11-20T06:33:01.823Z,29.80
2018-11-20T06:35:49.249Z,28.27
2018-11-20T06:38:40.641Z,29.90
2018-11-20T06:41:39.095Z,30.93
2018-11-20T06:44:27.656Z,29.67
2018-11-20T06:47:22.997Z,28.53
2018-11-20T06:50:10.249Z,28.07
2018-11-20T06:52:56.054Z,32.33
2018-11-20T06:55:44.765Z,31.17
2018-11-20T06:58:42.385Z,26.33
2018-11-20T07:01:30.073Z,32.43
2018-11-20T07:04:18.125Z,28.07
2018-11-20T07:07:04.192Z,30.80
2018-11-20T07:09:41.134Z,27.17
2018-11-20T07:12:32.748Z,25.10
2018-11-20T07:15:20.411Z,26.07
2018-11-20T07:18:09.375Z,28.43
2018-11-20T07:20:58.145Z,29.23
2018-11-20T07:23:35.236Z,30.83
2018-11-20T07:26:36.025Z,30.53
2018-11-20T07:29:23.432Z,31.87
2018-11-20T07:32:20.845Z,33.63
2018-11-20T07:35:07.755Z,37.37
2018-11-20T07:38:02.235Z,35.43
2018-11-20T07:40:48.435Z,38.17
2018-11-20T07:43:40.877Z,32.13
2018-11-20T07:46:37.486Z,31.40
2018-11-20T07:49:29.095Z,32.30
2018-11-20T07:52:16.694Z,34.60
2018-11-20T07:55:05.054Z,31.33
2018-11-20T07:58:03.535Z,38.70
2018-11-20T08:00:56.354Z,32.80
2018-11-20T08:03:54.764Z,31.43
2018-11-20T08:07:07.014Z,30.30
2018-11-20T08:09:59.995Z,32.03
2018-11-20T08:12:53.304Z,34.03
2018-11-20T08:15:44.839Z,33.70
2018-11-20T08:18:30.833Z,35.87
2018-11-20T08:21:19.475Z,32.63
2018-11-20T08:24:09.645Z,37.70
2018-11-20T08:27:04.341Z,43.63
2018-11-20T08:30:02.345Z,38.23
2018-11-20T08:32:56.912Z,36.97
2018-11-20T08:35:43.757Z,38.10
2018-11-20T08:38:31.105Z,39.07
2018-11-20T08:41:18.583Z,38.17
2018-11-20T08:44:13.439Z,37.17
2018-11-20T08:46:49.659Z,36.87
2018-11-20T08:49:38.100Z,33.13
2018-11-20T08:52:25.823Z,31.80
2018-11-20T08:58:09.083Z,33.70
2018-11-20T09:01:00.212Z,33.50
2018-11-20T09:03:53.675Z,30.87
2018-11-20T09:06:40.769Z,31.60
2018-11-20T09:09:44.844Z,31.43
2018-11-20T09:12:50.520Z,34.63
2018-11-20T09:15:37.604Z,34.43
2018-11-20T09:18:28.625Z,30.10
2018-11-20T09:24:09.545Z,31.97
2018-11-20T09:27:06.875Z,31.00
2018-11-20T09:29:56.075Z,31.77
2018-11-20T09:32:43.766Z,39.07
2018-11-20T09:35:40.446Z,41.67
2018-11-20T09:38:25.235Z,52.40
2018-11-20T09:41:14.345Z,43.00
2018-11-20T09:44:08.215Z,34.30
2018-11-20T09:47:10.506Z,32.57
2018-11-20T09:50:07.938Z,28.33
2018-11-20T09:52:55.898Z,25.53
2018-11-20T09:55:45.566Z,25.77
2018-11-20T09:58:40.176Z,23.93
2018-11-20T10:01:28.454Z,18.73
2018-11-20T10:04:29.365Z,20.40
2018-11-20T10:07:16.858Z,15.73
2018-11-20T10:10:14.475Z,17.80
2018-11-20T10:13:10.904Z,16.57
2018-11-20T10:15:59.856Z,13.40
2018-11-20T10:18:40.105Z,13.03
2018-11-20T10:21:28.769Z,13.27
2018-11-20T10:24:17.365Z,11.63
2018-11-20T10:27:04.925Z,12.47
2018-11-20T10:30:00.695Z,13.63
2018-11-20T10:32:59.895Z,10.70
2018-11-20T10:35:47.414Z,9.00
2018-11-20T10:38:43.835Z,10.43
2018-11-20T10:41:38.015Z,12.23
2018-11-20T10:44:26.924Z,9.83
2018-11-20T10:47:14.185Z,8.83
2018-11-20T10:50:12.705Z,8.43
2018-11-20T10:53:08.955Z,8.83
2018-11-20T10:56:00.635Z,9.63
2018-11-20T10:58:48.027Z,8.90
2018-11-20T11:01:36.969Z,9.43
2018-11-20T11:04:26.310Z,8.33
2018-11-20T11:06:56.814Z,6.73
2018-11-20T11:09:47.793Z,7.00
2018-11-20T11:12:35.055Z,6.80
2018-11-20T11:15:32.537Z,6.07
2018-11-20T11:18:31.880Z,6.60
2018-11-20T11:21:19.546Z,7.03
2018-11-20T11:24:04.687Z,7.33
2018-11-20T11:26:54.757Z,7.27
2018-11-20T11:29:42.188Z,8.10
2018-11-20T11:32:36.687Z,7.90
2018-11-20T11:35:24.825Z,6.77
2018-11-20T11:38:19.187Z,6.00
2018-11-20T11:41:08.007Z,8.10
2018-11-20T11:44:01.858Z,6.30
2018-11-20T11:47:02.247Z,5.80
2018-11-20T11:49:55.846Z,6.40
2018-11-20T11:52:47.967Z,8.47
2018-11-20T11:55:42.822Z,11.33
2018-11-20T11:58:49.736Z,10.10
2018-11-20T12:04:24.676Z,10.93
2018-11-20T12:07:16.447Z,10.83
2018-11-20T12:10:11.323Z,8.73
2018-11-20T12:13:05.603Z,9.93
2018-11-20T12:15:58.037Z,11.10
2018-11-20T12:18:49.649Z,12.53
2018-11-20T12:21:37.016Z,13.00
2018-11-20T12:24:24.647Z,12.57
2018-11-20T12:27:20.333Z,13.10
2018-11-20T12:30:10.803Z,14.77
2018-11-20T12:32:58.206Z,13.43
2018-11-20T12:35:54.602Z,15.73
2018-11-20T12:38:51.797Z,11.97
2018-11-20T12:41:50.538Z,9.30
2018-11-20T12:44:51.236Z,8.43
2018-11-20T12:47:40.529Z,7.80
2018-11-20T12:50:36.707Z,7.53
2018-11-20T12:53:24.592Z,7.57
2018-11-20T12:56:13.913Z,7.43
2018-11-20T12:58:54.756Z,7.37
2018-11-20T13:02:08.046Z,7.83
2018-11-20T13:05:05.267Z,7.47
2018-11-20T13:07:55.986Z,8.00
2018-11-20T13:10:48.575Z,8.03
2018-11-20T13:13:47.997Z,8.47
2018-11-20T13:16:38.697Z,9.20
2018-11-20T13:19:27.415Z,9.47
2018-11-20T13:22:13.758Z,7.80
2018-11-20T13:25:14.800Z,8.50
2018-11-20T13:28:03.910Z,8.73
2018-11-20T13:30:55.847Z,9.83
2018-11-20T13:33:53.612Z,10.27
2018-11-20T13:37:03.688Z,10.13
2018-11-20T13:40:07.700Z,10.50
2018-11-20T13:42:51.840Z,10.13
2018-11-20T13:45:43.814Z,11.37
2018-11-20T13:48:45.303Z,9.73
2018-11-20T13:51:35.776Z,11.23
2018-11-20T13:54:23.357Z,10.50
2018-11-20T13:57:14.946Z,10.90
2018-11-20T14:00:04.197Z,11.23
2018-11-20T14:03:05.244Z,11.57
2018-11-20T14:06:04.987Z,11.33
2018-11-20T14:09:08.727Z,10.90
2018-11-20T14:11:57.028Z,11.10
2018-11-20T14:14:34.426Z,15.17
2018-11-20T14:17:32.186Z,13.87
2018-11-20T14:20:23.516Z,13.17
2018-11-20T14:23:17.906Z,14.00
2018-11-20T14:26:05.623Z,13.37
2018-11-20T14:29:05.867Z,11.80
2018-11-20T14:32:05.137Z,14.00
2018-11-20T14:34:50.672Z,12.77
2018-11-20T14:37:34.317Z,12.73
2018-11-20T14:40:30.521Z,12.07
2018-11-20T14:43:13.096Z,11.60
2018-11-20T14:46:03.607Z,10.77
2018-11-20T14:48:51.057Z,12.07
2018-11-20T14:51:39.716Z,13.47
2018-11-20T14:54:35.027Z,15.13
2018-11-20T14:57:22.718Z,11.90
2018-11-20T15:00:17.155Z,11.10
2018-11-20T15:03:18.338Z,13.40
2018-11-20T15:06:07.506Z,15.20
2018-11-20T15:08:56.051Z,17.10
2018-11-20T15:11:48.431Z,26.07
2018-11-20T15:14:46.857Z,21.20
2018-11-20T15:17:37.591Z,18.70
2018-11-20T15:20:34.946Z,21.80
2018-11-20T15:23:23.587Z,16.57
2018-11-20T15:26:11.737Z,19.10
2018-11-20T15:29:00.125Z,20.60
2018-11-20T15:31:53.797Z,27.07
2018-11-20T15:34:47.012Z,24.07
2018-11-20T15:37:32.326Z,22.03
2018-11-20T15:40:11.127Z,18.87
2018-11-20T15:42:59.056Z,19.87
2018-11-20T15:45:42.176Z,24.87
2018-11-20T15:48:31.718Z,20.83
2018-11-20T15:51:21.630Z,19.47
2018-11-20T15:54:10.576Z,19.57
2018-11-20T15:56:58.239Z,20.53
2018-11-20T15:59:47.460Z,25.47
2018-11-20T16:02:37.747Z,21.60
2018-11-20T16:05:33.387Z,26.93
2018-11-20T16:08:21.957Z,27.40
2018-11-20T16:11:10.981Z,30.63
2018-11-20T16:14:02.408Z,32.20
2018-11-20T16:17:16.912Z,29.10
2018-11-20T16:20:01.153Z,33.60
2018-11-20T16:22:50.016Z,32.43
2018-11-20T16:25:37.477Z,31.53
2018-11-20T16:28:24.906Z,30.27
2018-11-20T16:31:25.270Z,32.30
2018-11-20T16:34:14.336Z,35.87
2018-11-20T16:37:02.970Z,35.90
2018-11-20T16:40:03.007Z,29.93
2018-11-20T16:42:50.366Z,33.53
2018-11-20T16:45:50.116Z,36.63
2018-11-20T16:48:44.546Z,50.37
2018-11-20T16:51:31.967Z,42.70
2018-11-20T16:54:17.098Z,46.03
2018-11-20T16:57:18.278Z,57.47
2018-11-20T17:00:11.040Z,55.93
2018-11-20T17:02:50.688Z,49.23
2018-11-20T17:05:40.786Z,46.47
2018-11-20T17:11:22.956Z,46.67
2018-11-20T17:14:10.766Z,51.57
2018-11-20T17:17:14.871Z,46.83
2018-11-20T17:20:12.756Z,40.60
2018-11-20T17:23:16.177Z,44.60
2018-11-20T17:26:03.907Z,47.17
2018-11-20T17:29:01.416Z,48.90
2018-11-20T17:31:49.108Z,52.10
2018-11-20T17:34:36.568Z,51.17
2018-11-20T17:37:37.398Z,55.57
2018-11-20T17:40:20.946Z,74.80
2018-11-20T17:43:10.166Z,56.17
2018-11-20T17:45:48.688Z,47.70
2018-11-20T17:48:35.777Z,58.50
2018-11-20T17:51:26.678Z,56.73
2018-11-20T17:54:18.156Z,50.23
2018-11-20T17:57:10.105Z,61.77
2018-11-20T17:59:59.028Z,58.53
2018-11-20T18:03:06.997Z,52.23
2018-11-20T18:05:56.019Z,45.27
2018-11-20T18:08:42.917Z,42.97
2018-11-20T18:11:31.946Z,48.87
2018-11-20T18:14:14.646Z,46.80
2018-11-20T18:16:56.593Z,42.87
2018-11-20T18:19:44.076Z,45.00
2018-11-20T18:22:29.487Z,45.27
2018-11-20T18:25:24.516Z,44.23
2018-11-20T18:28:31.607Z,47.17
2018-11-20T18:31:56.058Z,43.97
2018-11-20T18:34:43.827Z,45.00
2018-11-20T18:37:34.838Z,42.67
2018-11-20T18:40:28.246Z,47.23
2018-11-20T18:43:20.007Z,45.37
2018-11-20T18:46:09.485Z,49.07
2018-11-20T18:48:56.316Z,50.67
2018-11-20T18:51:49.307Z,44.77
2018-11-20T18:54:49.850Z,51.30
2018-11-20T18:57:47.179Z,42.43
2018-11-20T19:00:49.615Z,47.17
2018-11-20T19:03:36.520Z,46.10
2018-11-20T19:06:27.790Z,50.87
2018-11-20T19:09:16.175Z,45.70
2018-11-20T19:12:21.516Z,37.03
2018-11-20T19:15:28.451Z,42.43
2018-11-20T19:18:21.562Z,45.93
2018-11-20T19:21:09.774Z,42.57
